KCIC/CIC METAR and TAF weather

Enter ICAO airport designator
Station Type Date Time Source
KCIC METAR 2021/05/12 02:00 UTC NOAA

KCIC 120200Z 24005KT 40SM SCT250 32/M01 A2982


Station Type Date Time Source
KCIC Decoded METAR 2021/05/12 02:00 UTC NOAA

Chico Municipal , CA, United States (KCIC) 39-48N 121-51W
May 11, 2021 - 10:00 PM EDT / 2021.05.12 0200 UTC
Wind: from the WSW (240 degrees) at 6 MPH (5 KT):0
Visibility: 40 mile(s):0
Sky conditions: partly cloudy
Temperature: 89 F (32 C)
Dew Point: 30 F (-1 C)
Relative Humidity: 11%
Pressure (altimeter): 29.82 in. Hg (1009 hPa)
ob: KCIC 120200Z 24005KT 40SM SCT250 32/M01 A2982
cycle: 2

Station Type Date Time Source
KCIC TAF UTC NOAA

Error!

Example: see airport list